Flight Track Log - Related Links

Times and Time Zones

All times are in EDT time to prevent confusion due to time zone crossing. See the SWA3228 flight status page for this flight to view local times or setup timezone preferences in your user account.

Time Position Orientation Groundspeed Altitude Reporting Facility
EDT Latitude Longitude Course Direction KTS MPH feet Rate Location/Type
Mon 10:23:08 AM 33.5786 -86.7517 350° North 142 163 1,700  Level Atlanta Center
Mon 10:24:27 AM 33.6450 -86.7661 350° North 235 270 5,100 2,842 Climbing Atlanta Center
Mon 10:24:43 AM 33.6489 -86.7789 290° West 225 259 6,200 3,767 Climbing Atlanta Center
Mon 10:25:10 AM 33.6525 -86.8139 277° West 220 253 7,800 2,700 Climbing Atlanta Center
Mon 10:25:43 AM 33.6642 -86.8517 290° West 223 257 8,900 2,194 Climbing Atlanta Center
Mon 10:26:43 AM 33.7319 -86.8914 334° Northwest 228 262 11,200 2,876 Climbing Atlanta Center
Mon 10:28:57 AM 33.9486 -86.8767 North 316 364 18,200 3,000 Climbing Memphis Center
Mon 10:30:07 AM 34.0728 -86.8650 North 400 460 21,400 2,631 Climbing Atlanta Center
Mon 10:31:07 AM 34.1794 -86.8536 North 390 449 23,900 2,300 Climbing Atlanta Center
Mon 10:32:07 AM 34.2944 -86.8422 North 390 449 26,000 2,050 Climbing Atlanta Center
Mon 10:33:07 AM 34.4094 -86.8361 North 402 463 28,000 1,800 Climbing Atlanta Center
Mon 10:34:07 AM 34.5286 -86.8250 North 415 478 29,600 1,650 Climbing Atlanta Center
Mon 10:35:07 AM 34.6542 -86.8139 North 431 496 31,300 2,000 Climbing Atlanta Center
Mon 10:36:07 AM 34.7733 -86.8025 North 437 503 33,600 1,950 Climbing Atlanta Center
Mon 10:37:07 AM 34.8925 -86.7939 North 437 503 35,200 1,400 Climbing Atlanta Center
Mon 10:38:07 AM 35.0117 -86.7828 North 432 497 36,400 1,150 Climbing Atlanta Center
Mon 10:39:07 AM 35.1308 -86.7739 North 427 491 37,500 787 Climbing Atlanta Center
Mon 10:40:09 AM 35.2536 -86.7642 North 428 493 38,000 738 Climbing Memphis Center
Mon 10:41:09 AM 35.3764 -86.7539 North 441 507 39,000 500 Climbing Memphis Center
Mon 10:42:09 AM 35.4992 -86.7433 North 441 507 39,000  Level Memphis Center
Mon 10:43:09 AM 35.6217 -86.7303 North 441 507 39,000  Level Memphis Center
Mon 10:44:09 AM 35.7425 -86.7200 North 441 507 39,000  Level Memphis Center
Mon 10:45:09 AM 35.8631 -86.7094 North 436 502 39,000  Level Memphis Center
Mon 10:46:09 AM 35.9836 -86.6992 North 436 502 39,000  Level Memphis Center
Mon 10:47:09 AM 36.0897 -86.6867 North 434 499 39,000  Level Memphis Center
Mon 10:48:09 AM 36.2031 -86.6456 16° North 423 487 39,000  Level Memphis Center
Mon 10:49:09 AM 36.3261 -86.5781 24° Northeast 428 493 39,000  Level Memphis Center
Mon 10:50:09 AM 36.4367 -86.5161 24° Northeast 428 493 39,000  Level Memphis Center
Mon 10:51:09 AM 36.5311 -86.4678 22° Northeast 423 487 39,000  Level Memphis Center
Mon 10:52:09 AM 36.6419 -86.4081 23° Northeast 428 493 39,000  Level Memphis Center
Mon 10:53:09 AM 36.7522 -86.3458 24° Northeast 428 493 39,000  Level Memphis Center
Mon 10:54:09 AM 36.8589 -86.2858 24° Northeast 428 493 39,000  Level Memphis Center
Mon 10:55:54 AM 37.0597 -86.1728 24° Northeast 430 495 39,000  Level Indianapolis Center
Mon 10:56:56 AM 37.1692 -86.1106 24° Northeast 429 494 39,000  Level Indianapolis Center
Mon 10:57:58 AM 37.2781 -86.0486 24° Northeast 427 491 39,000  Level Indianapolis Center
Mon 10:59:00 AM 37.3856 -85.9881 24° Northeast 423 487 39,000  Level Indianapolis Center
Mon 11:00:02 AM 37.5031 -85.9808 North 419 482 39,000  Level Indianapolis Center
Mon 11:01:04 AM 37.6228 -85.9842 359° North 417 480 39,000  Level Indianapolis Center
Mon 11:02:06 AM 37.7369 -85.9869 359° North 412 474 39,000  Level Indianapolis Center
Mon 11:03:08 AM 37.8517 -85.9903 359° North 411 473 39,000  Level Indianapolis Center
Mon 11:04:09 AM 37.9650 -85.9931 359° North 407 468 39,000  Level Indianapolis Center
Mon 11:05:11 AM 38.1022 -85.9969 359° North 410 472 39,000 -194 Level Indianapolis Center
Mon 11:06:13 AM 38.2169 -85.9992 359° North 411 473 38,600 -677 Descending Indianapolis Center
Mon 11:07:15 AM 38.3311 -86.0019 359° North 410 472 37,600 -1,645 Descending Indianapolis Center
Mon 11:08:17 AM 38.4444 -86.0047 359° North 408 470 35,200 -1,258 Descending Indianapolis Center
Mon 11:09:19 AM 38.5603 -86.0072 359° North 415 478 35,000 -732 Descending Indianapolis Center
Mon 11:10:20 AM 38.6775 -86.0094 359° North 420 483 33,700 -1,366 Descending Indianapolis Center
Mon 11:11:22 AM 38.7961 -86.0131 359° North 425 489 32,200 -1,500 Descending Indianapolis Center
Mon 11:12:24 AM 38.9344 -86.0164 359° North 433 498 30,600 -1,065 Descending Indianapolis Center
Mon 11:13:26 AM 39.0567 -86.0192 359° North 436 502 30,000 -293 Descending Indianapolis Center
Mon 11:14:27 AM 39.1811 -86.0228 359° North 442 509 30,000  Level Indianapolis Center
Mon 11:15:29 AM 39.3050 -86.0258 359° North 444 511 30,000  Level Indianapolis Center
Mon 11:16:31 AM 39.4500 -86.0297 359° North 444 511 30,000  Level Indianapolis Center
Mon 11:17:32 AM 39.5728 -86.0328 359° North 441 507 30,000  Level Indianapolis Center
Mon 11:18:34 AM 39.6958 -86.0358 359° North 443 510 30,000 -581 Level Indianapolis Center
Mon 11:19:36 AM 39.8175 -86.0392 359° North 442 509 28,800 -2,049 Descending Indianapolis Center
Mon 11:20:37 AM 39.9400 -86.0417 359° North 442 509 25,800 -2,341 Descending Indianapolis Center
Mon 11:21:39 AM 40.0592 -86.0461 358° North 431 496 24,000 -1,161 Descending Indianapolis Center
Mon 11:22:41 AM 40.1911 -86.0942 344° North 423 487 23,400 -783 Descending Indianapolis Center
Mon 11:23:11 AM 40.2464 -86.1153 344° North 419 482 22,800 -1,043 Descending Chicago Center
Mon 11:24:13 AM 40.3561 -86.1581 343° North 412 474 21,800 -968 Descending Chicago Center
Mon 11:25:15 AM 40.4672 -86.2014 343° North 413 475 20,800 -976 Descending Chicago Center
Mon 11:26:16 AM 40.5772 -86.2450 343° North 410 472 19,800 -976 Descending Chicago Center
Mon 11:27:18 AM 40.6864 -86.2864 344° North 406 467 18,800 -1,161 Descending Chicago Center
Mon 11:28:20 AM 40.7831 -86.3272 342° North 396 456 17,400 -2,129 Descending Chicago Center
Mon 11:29:22 AM 40.9064 -86.3781 343° North 388 447 14,400 -2,661 Descending Chicago Center
Mon 11:30:24 AM 41.0056 -86.4164 344° North 376 433 11,900 -1,756 Descending Chicago Center
Mon 11:31:25 AM 41.0828 -86.4869 325° Northwest 354 407 10,800 -927 Descending Chicago Center
Mon 11:32:27 AM 41.1464 -86.5817 312° West 343 395 10,000 -387 Descending Chicago Center
Mon 11:33:29 AM 41.2064 -86.6758 310° West 335 386 10,000  Level Chicago Center
Mon 11:34:31 AM 41.2767 -86.7850 311° West 334 384 10,000  Level Chicago Center
Mon 11:35:33 AM 41.3364 -86.8778 311° West 334 384 10,000 -98 Level Chicago Center
Mon 11:36:34 AM 41.3906 -86.9622 311° West 307 353 9,800 -823 Descending Chicago Center
Mon 11:37:37 AM 41.4400 -87.0383 311° West 281 323 8,300 -1,452 Descending Chicago Center
Mon 11:38:38 AM 41.4892 -87.1161 310° West 278 320 6,800 -1,595 Descending Chicago Center
Mon 11:38:56 AM 41.5167 -87.1500 317° Northwest 272 313 6,200 -615 Descending Chicago TRACON
Mon 11:39:56 AM 41.5333 -87.2333 285° West 249 287 6,000 -100 Descending Chicago TRACON
Mon 11:40:56 AM 41.5667 -87.3167 298° West 251 289 6,000 -56 Level Chicago TRACON
Mon 11:41:44 AM 41.5897 -87.3833 295° West 252 290 5,900 -927 Descending Chicago Center
Mon 11:42:46 AM 41.6211 -87.4678 296° West 253 291 4,300 -927 Descending Chicago Center
Mon 11:43:47 AM 41.6522 -87.5511 297° West 255 293 4,000 -508 Descending Chicago Center
Mon 11:44:56 AM 41.7000 -87.6333 308° West 211 243 3,200 -791 Descending Chicago TRACON
Mon 11:45:56 AM 41.7500 -87.6667 334° Northwest 201 231 2,300 -800 Descending Chicago TRACON
Mon 11:46:56 AM 41.8000 -87.6833 346° North 158 182 1,600 -496 Descending Chicago TRACON
Mon 11:47:57 AM 41.8167 -87.7167 304° West 142 163 1,300 -295 Descending Chicago TRACON
Mon 11:50:00 AM 41.7833 -87.7500 334° Northwest  Level FlightAware Approximate
Mon 11:57:00 AM 41.7860 -87.7524 334° Northwest  Level Estimated

Login

Don't have an account? Register now (free) for customized features, flight alerts, and more!